createdAt,value
2019-05-01T00:01:50.241Z,16.36
2019-05-01T00:04:35.803Z,16.21
2019-05-01T00:07:10.154Z,16.11
2019-05-01T00:09:39.598Z,16.19
2019-05-01T00:12:09.014Z,16.24
2019-05-01T00:14:38.371Z,16.10
2019-05-01T00:17:07.884Z,16.00
2019-05-01T00:19:37.232Z,16.06
2019-05-01T00:22:06.626Z,16.16
2019-05-01T00:24:36.176Z,16.17
2019-05-01T00:27:05.590Z,16.14
2019-05-01T00:29:34.958Z,16.23
2019-05-01T00:32:04.367Z,16.23
2019-05-01T00:34:33.826Z,16.29
2019-05-01T00:37:03.255Z,16.32
2019-05-01T00:39:32.658Z,16.34
2019-05-01T00:42:02.010Z,16.26
2019-05-01T00:44:31.413Z,16.28
2019-05-01T00:47:00.822Z,16.30
2019-05-01T00:49:30.270Z,16.27
2019-05-01T00:51:59.736Z,15.91
2019-05-01T00:54:30.587Z,15.96
2019-05-01T00:57:09.987Z,15.95
2019-05-01T00:59:48.705Z,15.78
2019-05-01T01:02:33.365Z,15.90
2019-05-01T01:05:02.733Z,15.98
2019-05-01T01:07:32.305Z,15.76
2019-05-01T01:10:01.728Z,15.94
2019-05-01T01:12:31.113Z,16.00
2019-05-01T01:15:00.587Z,15.95
2019-05-01T01:17:29.948Z,15.92
2019-05-01T01:19:59.398Z,15.95
2019-05-01T01:22:28.771Z,16.01
2019-05-01T01:24:58.238Z,16.00
2019-05-01T01:27:27.695Z,15.97
2019-05-01T01:29:57.305Z,16.03
2019-05-01T01:32:26.727Z,16.04
2019-05-01T01:34:56.157Z,16.02
2019-05-01T01:37:25.626Z,15.94
2019-05-01T01:39:55.057Z,15.96
2019-05-01T01:42:24.620Z,15.70
2019-05-01T01:45:21.940Z,15.67
2019-05-01T01:48:11.040Z,15.46
2019-05-01T01:50:40.777Z,15.44
2019-05-01T01:53:10.352Z,15.51
2019-05-01T01:55:39.824Z,15.46
2019-05-01T01:58:09.190Z,15.38
2019-05-01T02:01:09.621Z,15.26
2019-05-01T02:03:38.000Z,15.30
2019-05-01T02:06:07.440Z,15.39
2019-05-01T02:08:36.902Z,15.40
2019-05-01T02:11:06.321Z,15.15
2019-05-01T02:13:35.778Z,14.92
2019-05-01T02:16:05.193Z,14.65
2019-05-01T02:18:34.598Z,14.14
2019-05-01T02:21:04.173Z,14.65
2019-05-01T02:23:33.569Z,14.48
2019-05-01T02:26:03.004Z,14.32
2019-05-01T02:28:50.916Z,14.74
2019-05-01T02:31:29.484Z,14.54
2019-05-01T02:33:59.105Z,14.82
2019-05-01T02:36:29.002Z,14.98
2019-05-01T02:38:58.805Z,15.07
2019-05-01T02:41:32.394Z,15.09
2019-05-01T02:44:03.506Z,15.09
2019-05-01T02:46:33.003Z,15.13
2019-05-01T02:49:06.673Z,14.96
2019-05-01T02:51:36.084Z,14.83
2019-05-01T02:54:05.447Z,14.89
2019-05-01T02:56:58.261Z,14.98
2019-05-01T02:59:27.727Z,15.00
2019-05-01T03:01:57.147Z,14.87
2019-05-01T03:04:26.544Z,14.78
2019-05-01T03:06:56.012Z,14.82
2019-05-01T03:09:25.402Z,14.91
2019-05-01T03:11:54.811Z,14.92
2019-05-01T03:14:24.185Z,14.90
2019-05-01T03:16:53.635Z,14.63
2019-05-01T03:19:41.895Z,14.29
2019-05-01T03:22:30.222Z,14.40
2019-05-01T03:24:59.845Z,14.43
2019-05-01T03:27:29.279Z,14.66
2019-05-01T03:29:58.667Z,14.72
2019-05-01T03:32:28.111Z,14.65
2019-05-01T03:34:57.611Z,14.53
2019-05-01T03:37:27.407Z,14.49
2019-05-01T03:39:57.032Z,14.62
2019-05-01T03:42:26.853Z,14.50
2019-05-01T03:44:56.590Z,14.62
2019-05-01T03:47:26.229Z,14.61
2019-05-01T03:49:56.032Z,14.54
2019-05-01T03:52:25.869Z,14.51
2019-05-01T03:54:55.530Z,14.47
2019-05-01T03:57:25.167Z,14.53
2019-05-01T03:59:54.954Z,14.54
2019-05-01T04:02:38.054Z,14.54
2019-05-01T04:05:07.563Z,14.49
2019-05-01T04:07:37.231Z,14.41
2019-05-01T04:10:07.555Z,14.34
2019-05-01T04:12:37.270Z,14.33
2019-05-01T04:15:07.082Z,14.36
2019-05-01T04:17:45.431Z,13.79
2019-05-01T04:20:15.148Z,13.69
2019-05-01T04:22:44.955Z,13.97
2019-05-01T04:25:14.590Z,14.14
2019-05-01T04:27:46.942Z,14.23
2019-05-01T04:30:23.447Z,14.30
2019-05-01T04:32:54.949Z,14.26
2019-05-01T04:35:29.046Z,14.32
2019-05-01T04:37:59.785Z,14.38
2019-05-01T04:40:29.387Z,14.45
2019-05-01T04:42:59.093Z,14.50
2019-05-01T04:45:29.178Z,14.68
2019-05-01T04:47:58.908Z,14.81
2019-05-01T04:50:28.688Z,14.75
2019-05-01T04:52:58.446Z,15.02
2019-05-01T04:55:28.106Z,15.29
2019-05-01T04:57:57.751Z,15.47
2019-05-01T05:00:27.495Z,14.91
2019-05-01T05:03:05.384Z,15.26
2019-05-01T05:05:35.098Z,14.68
2019-05-01T05:08:04.885Z,15.27
2019-05-01T05:10:34.533Z,15.68
2019-05-01T05:13:13.750Z,16.02
2019-05-01T05:16:05.065Z,16.39
2019-05-01T05:18:34.880Z,16.58
2019-05-01T05:21:04.630Z,16.88
2019-05-01T05:23:34.275Z,17.16
2019-05-01T05:26:04.052Z,17.39
2019-05-01T05:28:33.811Z,17.44
2019-05-01T05:31:03.486Z,17.37
2019-05-01T05:33:35.011Z,17.24
2019-05-01T05:36:05.355Z,17.24
2019-05-01T05:39:03.081Z,17.25
2019-05-01T05:41:32.939Z,17.42
2019-05-01T05:44:02.813Z,17.70
2019-05-01T05:46:32.462Z,18.33
2019-05-01T05:49:02.321Z,18.55
2019-05-01T05:51:52.988Z,19.04
2019-05-01T05:54:48.953Z,19.49
2019-05-01T05:57:33.521Z,18.98
2019-05-01T06:00:14.175Z,18.36
2019-05-01T06:02:56.778Z,18.44
2019-05-01T06:05:37.710Z,17.77
2019-05-01T06:08:12.900Z,18.53
2019-05-01T06:10:58.642Z,18.40
2019-05-01T06:13:44.169Z,18.26
2019-05-01T06:16:32.719Z,19.45
2019-05-01T06:19:24.349Z,20.45
2019-05-01T06:22:16.787Z,21.37
2019-05-01T06:24:49.569Z,22.23
2019-05-01T06:27:19.215Z,22.69
2019-05-01T06:29:48.956Z,23.13
2019-05-01T06:32:18.633Z,23.46
2019-05-01T06:34:48.272Z,23.25
2019-05-01T06:37:20.844Z,23.20
2019-05-01T06:39:49.842Z,23.19
2019-05-01T06:42:20.500Z,23.39
2019-05-01T06:44:55.238Z,23.09
2019-05-01T06:47:33.345Z,22.88
2019-05-01T06:50:10.248Z,22.52
2019-05-01T06:52:40.187Z,23.70
2019-05-01T06:55:09.833Z,24.38
2019-05-01T06:57:43.680Z,24.63
2019-05-01T07:00:15.684Z,24.69
2019-05-01T07:02:45.565Z,25.03
2019-05-01T07:05:16.515Z,24.52
2019-05-01T07:07:48.101Z,24.58
2019-05-01T07:10:29.892Z,24.45
2019-05-01T07:12:49.008Z,24.44
2019-05-01T07:15:22.049Z,24.28
2019-05-01T07:17:49.935Z,24.90
2019-05-01T07:20:51.384Z,25.28
2019-05-01T07:23:19.129Z,25.53
2019-05-01T07:25:48.853Z,25.18
2019-05-01T07:28:18.369Z,24.97
2019-05-01T07:31:06.311Z,25.60
2019-05-01T07:33:35.889Z,25.50
2019-05-01T07:36:06.957Z,26.08
2019-05-01T07:38:38.314Z,26.34
2019-05-01T07:41:08.507Z,26.87
2019-05-01T07:44:12.440Z,26.88
2019-05-01T07:47:10.513Z,25.83
2019-05-01T07:49:54.835Z,24.63
2019-05-01T07:52:24.987Z,23.84
2019-05-01T07:54:55.519Z,23.83
2019-05-01T07:57:25.245Z,23.77
2019-05-01T07:59:58.344Z,23.96
2019-05-01T08:02:31.001Z,24.60
2019-05-01T08:04:57.762Z,24.87
2019-05-01T08:07:27.822Z,24.98
2019-05-01T08:09:58.954Z,25.20
2019-05-01T08:12:28.583Z,25.26
2019-05-01T08:14:58.282Z,24.85
2019-05-01T08:17:29.697Z,24.68
2019-05-01T08:20:20.985Z,25.55
2019-05-01T08:22:50.594Z,26.35
2019-05-01T08:25:20.306Z,26.80
2019-05-01T08:28:08.661Z,25.76
2019-05-01T08:31:05.114Z,26.14
2019-05-01T08:33:57.026Z,26.46
2019-05-01T08:36:26.589Z,26.70
2019-05-01T08:38:56.308Z,27.25
2019-05-01T08:41:27.074Z,27.22
2019-05-01T08:43:57.360Z,27.48
2019-05-01T08:46:50.979Z,27.58
2019-05-01T08:49:42.281Z,26.69
2019-05-01T08:52:12.762Z,26.25
2019-05-01T08:54:40.424Z,26.41
2019-05-01T08:57:10.076Z,26.92
2019-05-01T08:59:39.723Z,26.92
2019-05-01T09:02:09.990Z,27.27
2019-05-01T09:04:39.808Z,27.35
2019-05-01T09:07:09.492Z,26.63
2019-05-01T09:09:39.875Z,26.51
2019-05-01T09:12:11.910Z,27.08
2019-05-01T09:14:41.634Z,25.40
2019-05-01T09:17:11.257Z,26.31
2019-05-01T09:19:40.932Z,29.50
2019-05-01T09:22:10.466Z,28.79
2019-05-01T09:24:40.787Z,30.05
2019-05-01T09:27:31.112Z,30.46
2019-05-01T09:30:04.291Z,29.27
2019-05-01T09:32:33.293Z,29.42
2019-05-01T09:35:15.211Z,29.57
2019-05-01T09:37:34.245Z,28.93
2019-05-01T09:40:08.511Z,27.01
2019-05-01T09:42:35.210Z,27.18
2019-05-01T09:45:04.839Z,26.98
2019-05-01T09:47:34.467Z,27.99
2019-05-01T09:50:04.350Z,29.28
2019-05-01T09:52:47.904Z,29.38
2019-05-01T09:55:36.495Z,29.52
2019-05-01T09:58:06.230Z,27.81
2019-05-01T10:00:35.905Z,28.25
2019-05-01T10:03:05.563Z,29.19
2019-05-01T10:05:37.956Z,28.38
2019-05-01T10:08:06.614Z,28.54
2019-05-01T10:10:37.086Z,27.53
2019-05-01T10:13:06.964Z,26.88
2019-05-01T10:15:36.603Z,27.10
2019-05-01T10:18:06.315Z,27.70
2019-05-01T10:20:36.139Z,28.97
2019-05-01T10:23:07.785Z,27.55
2019-05-01T10:25:42.796Z,28.07
2019-05-01T10:28:17.634Z,28.75
2019-05-01T10:31:11.826Z,30.12
2019-05-01T10:33:43.077Z,30.04
2019-05-01T10:36:26.533Z,27.88
2019-05-01T10:38:56.152Z,28.58
2019-05-01T10:41:25.816Z,28.31
2019-05-01T10:43:55.563Z,29.60
2019-05-01T10:46:25.240Z,28.82
2019-05-01T10:48:57.382Z,28.71
2019-05-01T10:51:26.310Z,27.46
2019-05-01T10:53:55.975Z,28.29
2019-05-01T10:56:25.627Z,28.39
2019-05-01T10:58:55.299Z,28.06
2019-05-01T11:01:32.141Z,28.18
2019-05-01T11:04:01.779Z,29.32
2019-05-01T11:06:31.320Z,27.33
2019-05-01T11:09:00.858Z,25.56
2019-05-01T11:11:30.538Z,26.47
2019-05-01T11:14:00.222Z,27.51
2019-05-01T11:16:29.839Z,26.73
2019-05-01T11:18:59.521Z,26.44
2019-05-01T11:21:29.193Z,26.24
2019-05-01T11:23:58.828Z,27.84
2019-05-01T11:26:28.602Z,27.65
2019-05-01T11:28:58.346Z,28.42
2019-05-01T11:31:35.322Z,29.34
2019-05-01T11:34:23.760Z,29.36
2019-05-01T11:37:27.262Z,29.95
2019-05-01T11:40:03.325Z,29.46
2019-05-01T11:42:32.905Z,29.43
2019-05-01T11:45:02.465Z,30.23
2019-05-01T11:47:32.174Z,30.43
2019-05-01T11:50:01.756Z,30.89
2019-05-01T11:52:31.462Z,31.01
2019-05-01T11:55:00.973Z,31.01
2019-05-01T11:57:30.656Z,30.53
2019-05-01T12:00:00.291Z,30.89
2019-05-01T12:02:29.970Z,30.56
2019-05-01T12:04:59.648Z,30.55
2019-05-01T12:07:29.317Z,28.84
2019-05-01T12:09:58.847Z,29.94
2019-05-01T12:12:30.167Z,30.03
2019-05-01T12:14:59.812Z,29.68
2019-05-01T12:17:34.465Z,29.23
2019-05-01T12:20:04.168Z,29.90
2019-05-01T12:22:33.918Z,30.37
2019-05-01T12:25:03.634Z,30.62
2019-05-01T12:27:33.320Z,30.73
2019-05-01T12:30:02.883Z,29.65
2019-05-01T12:32:32.636Z,28.02
2019-05-01T12:35:02.306Z,28.47
2019-05-01T12:37:36.580Z,29.19
2019-05-01T12:40:06.773Z,28.56
2019-05-01T12:42:36.672Z,26.83
2019-05-01T12:45:07.579Z,27.76
2019-05-01T12:47:49.624Z,26.95
2019-05-01T12:50:19.302Z,26.87
2019-05-01T12:53:20.328Z,27.76
2019-05-01T12:56:15.115Z,29.26
2019-05-01T12:58:45.840Z,28.79
2019-05-01T13:01:15.534Z,27.79
2019-05-01T13:03:45.248Z,27.64
2019-05-01T13:06:14.894Z,26.23
2019-05-01T13:08:44.532Z,27.32
2019-05-01T13:11:14.196Z,27.36
2019-05-01T13:13:43.883Z,27.84
2019-05-01T13:16:13.431Z,27.58
2019-05-01T13:18:43.139Z,28.43
2019-05-01T13:21:12.721Z,28.02
2019-05-01T13:23:42.403Z,26.76
2019-05-01T13:26:35.904Z,26.89
2019-05-01T13:29:30.498Z,27.98
2019-05-01T13:32:27.877Z,28.02
2019-05-01T13:34:57.538Z,28.60
2019-05-01T13:37:27.175Z,29.45
2019-05-01T13:39:56.742Z,29.68
2019-05-01T13:42:26.311Z,26.63
2019-05-01T13:44:56.013Z,25.47
2019-05-01T13:47:25.636Z,25.35
2019-05-01T13:49:55.286Z,25.62
2019-05-01T13:52:24.917Z,25.96
2019-05-01T13:54:54.613Z,26.76
2019-05-01T13:57:24.258Z,26.71
2019-05-01T13:59:53.890Z,25.42
2019-05-01T14:02:23.559Z,26.86
2019-05-01T14:04:53.244Z,27.82
2019-05-01T14:07:22.901Z,26.96
2019-05-01T14:09:52.562Z,26.55
2019-05-01T14:12:22.335Z,25.49
2019-05-01T14:14:51.973Z,24.68
2019-05-01T14:17:21.657Z,24.56
2019-05-01T14:20:00.140Z,24.90
2019-05-01T14:22:52.480Z,24.55
2019-05-01T14:25:22.034Z,24.26
2019-05-01T14:27:51.482Z,24.75
2019-05-01T14:30:21.174Z,24.56
2019-05-01T14:32:51.818Z,24.86
2019-05-01T14:35:21.645Z,25.98
2019-05-01T14:37:51.270Z,27.13
2019-05-01T14:40:20.843Z,28.11
2019-05-01T14:42:50.469Z,28.28
2019-05-01T14:45:20.155Z,28.92
2019-05-01T14:47:49.838Z,27.86
2019-05-01T14:50:19.379Z,28.47
2019-05-01T14:52:49.083Z,27.19
2019-05-01T14:55:18.755Z,25.73
2019-05-01T14:57:48.504Z,25.68
2019-05-01T15:00:18.640Z,25.45
2019-05-01T15:02:48.331Z,26.27
2019-05-01T15:05:18.023Z,26.79
2019-05-01T15:07:47.644Z,28.00
2019-05-01T15:10:17.276Z,28.55
2019-05-01T15:12:48.574Z,28.66
2019-05-01T15:15:29.343Z,28.18
2019-05-01T15:18:03.296Z,26.95
2019-05-01T15:20:32.936Z,27.09
2019-05-01T15:23:02.394Z,28.00
2019-05-01T15:25:32.030Z,27.97
2019-05-01T15:28:01.713Z,27.70
2019-05-01T15:30:31.442Z,28.19
2019-05-01T15:33:01.083Z,27.60
2019-05-01T15:35:30.549Z,26.03
2019-05-01T15:38:00.245Z,26.78
2019-05-01T15:40:38.264Z,26.98
2019-05-01T15:43:25.410Z,27.68
2019-05-01T15:45:55.112Z,27.91
2019-05-01T15:48:24.778Z,28.55
2019-05-01T15:50:54.332Z,28.18
2019-05-01T15:53:23.992Z,28.46
2019-05-01T15:55:53.551Z,28.36
2019-05-01T15:58:23.193Z,28.69
2019-05-01T16:00:52.666Z,28.73
2019-05-01T16:03:22.432Z,27.87
2019-05-01T16:05:52.098Z,28.25
2019-05-01T16:08:22.088Z,28.69
2019-05-01T16:11:02.709Z,28.85
2019-05-01T16:13:33.857Z,28.98
2019-05-01T16:16:05.606Z,29.07
2019-05-01T16:18:36.056Z,28.98
2019-05-01T16:21:06.275Z,26.89
2019-05-01T16:23:36.570Z,27.17
2019-05-01T16:26:06.120Z,27.01
2019-05-01T16:28:36.043Z,27.16
2019-05-01T16:31:05.954Z,26.96
2019-05-01T16:33:35.565Z,26.98
2019-05-01T16:36:05.534Z,26.90
2019-05-01T16:38:50.747Z,26.81
2019-05-01T16:41:20.870Z,26.85
2019-05-01T16:43:50.685Z,26.84
2019-05-01T16:46:20.767Z,26.80
2019-05-01T16:48:50.792Z,26.57
2019-05-01T16:51:22.153Z,26.44
2019-05-01T16:53:52.294Z,26.45
2019-05-01T16:56:22.220Z,26.34
2019-05-01T16:58:52.275Z,26.31
2019-05-01T17:01:38.156Z,26.27
2019-05-01T17:04:12.709Z,26.28
2019-05-01T17:06:48.739Z,26.27
2019-05-01T17:09:37.450Z,26.23
2019-05-01T17:12:10.949Z,26.18
2019-05-01T17:14:40.120Z,26.02
2019-05-01T17:17:13.838Z,25.97
2019-05-01T17:19:43.754Z,25.87
2019-05-01T17:22:14.569Z,25.73
2019-05-01T17:24:45.951Z,25.67
2019-05-01T17:27:15.966Z,25.59
2019-05-01T17:29:45.813Z,25.53
2019-05-01T17:32:17.451Z,25.43
2019-05-01T17:34:47.903Z,25.46
2019-05-01T17:37:17.983Z,25.50
2019-05-01T17:39:48.333Z,25.47
2019-05-01T17:42:18.009Z,25.45
2019-05-01T17:44:48.653Z,25.40
2019-05-01T17:47:22.500Z,25.38
2019-05-01T17:49:50.153Z,25.36
2019-05-01T17:52:20.023Z,25.30
2019-05-01T17:54:49.542Z,25.23
2019-05-01T17:57:19.248Z,25.16
2019-05-01T17:59:50.839Z,25.08
2019-05-01T18:02:30.659Z,25.04
2019-05-01T18:05:17.052Z,24.97
2019-05-01T18:07:46.740Z,24.84
2019-05-01T18:10:16.474Z,24.74
2019-05-01T18:12:46.137Z,24.63
2019-05-01T18:15:15.828Z,24.55
2019-05-01T18:17:45.292Z,24.51
2019-05-01T18:20:14.950Z,24.37
2019-05-01T18:23:08.449Z,24.24
2019-05-01T18:25:51.460Z,24.16
2019-05-01T18:28:31.711Z,24.00
2019-05-01T18:31:01.548Z,23.92
2019-05-01T18:33:31.247Z,23.87
2019-05-01T18:36:00.955Z,23.82
2019-05-01T18:38:47.689Z,23.78
2019-05-01T18:41:20.583Z,23.69
2019-05-01T18:43:50.252Z,23.64
2019-05-01T18:46:19.998Z,23.61
2019-05-01T18:48:49.792Z,23.58
2019-05-01T18:51:19.603Z,23.56
2019-05-01T18:53:50.247Z,23.46
2019-05-01T18:56:19.905Z,23.38
2019-05-01T18:58:49.642Z,23.31
2019-05-01T19:01:19.302Z,23.27
2019-05-01T19:03:49.260Z,23.15
2019-05-01T19:06:19.011Z,22.77
2019-05-01T19:08:48.702Z,22.72
2019-05-01T19:11:18.478Z,22.66
2019-05-01T19:13:48.216Z,22.46
2019-05-01T19:16:17.902Z,22.19
2019-05-01T19:18:47.778Z,21.93
2019-05-01T19:21:19.117Z,21.81
2019-05-01T19:23:48.761Z,21.76
2019-05-01T19:26:19.072Z,21.82
2019-05-01T19:28:48.697Z,21.73
2019-05-01T19:31:21.251Z,21.51
2019-05-01T19:33:49.753Z,21.66
2019-05-01T19:36:19.407Z,21.58
2019-05-01T19:38:49.055Z,21.66
2019-05-01T19:41:18.627Z,21.76
2019-05-01T19:43:48.329Z,21.72
2019-05-01T19:46:18.035Z,21.47
2019-05-01T19:48:50.676Z,21.44
2019-05-01T19:51:23.606Z,21.31
2019-05-01T19:53:51.666Z,21.26
2019-05-01T19:56:22.851Z,21.16
2019-05-01T19:58:52.459Z,20.96
2019-05-01T20:01:22.146Z,20.94
2019-05-01T20:03:51.905Z,20.84
2019-05-01T20:06:21.570Z,20.66
2019-05-01T20:08:51.223Z,20.86
2019-05-01T20:11:20.880Z,20.45
2019-05-01T20:13:50.645Z,20.57
2019-05-01T20:16:21.465Z,20.62
2019-05-01T20:18:51.180Z,20.61
2019-05-01T20:21:21.051Z,20.65
2019-05-01T20:23:50.859Z,20.53
2019-05-01T20:26:21.120Z,20.43
2019-05-01T20:28:50.841Z,20.30
2019-05-01T20:31:22.781Z,20.44
2019-05-01T20:33:51.974Z,20.12
2019-05-01T20:36:21.769Z,20.15
2019-05-01T20:38:51.409Z,20.20
2019-05-01T20:41:21.166Z,20.23
2019-05-01T20:43:50.749Z,19.93
2019-05-01T20:46:21.341Z,19.82
2019-05-01T20:48:55.826Z,19.77
2019-05-01T20:51:23.120Z,19.59
2019-05-01T20:53:52.786Z,19.53
2019-05-01T20:56:40.373Z,19.55
2019-05-01T20:59:10.014Z,19.65
2019-05-01T21:01:39.671Z,19.37
2019-05-01T21:04:28.227Z,19.57
2019-05-01T21:07:21.111Z,19.22
2019-05-01T21:09:56.809Z,19.12
2019-05-01T21:12:22.324Z,19.26
2019-05-01T21:14:51.969Z,19.20
2019-05-01T21:17:21.527Z,19.12
2019-05-01T21:19:51.272Z,19.08
2019-05-01T21:22:20.863Z,19.36
2019-05-01T21:24:50.511Z,18.98
2019-05-01T21:27:20.192Z,18.94
2019-05-01T21:29:49.809Z,19.05
2019-05-01T21:32:26.160Z,18.97
2019-05-01T21:34:50.895Z,19.03
2019-05-01T21:37:20.534Z,19.00
2019-05-01T21:39:50.194Z,19.00
2019-05-01T21:42:19.722Z,18.91
2019-05-01T21:44:49.476Z,18.64
2019-05-01T21:47:19.105Z,18.69
2019-05-01T21:49:48.789Z,18.80
2019-05-01T21:52:23.033Z,18.75
2019-05-01T21:54:50.066Z,18.87
2019-05-01T21:57:21.160Z,18.63
2019-05-01T21:59:50.885Z,18.85
2019-05-01T22:02:20.552Z,18.95
2019-05-01T22:04:50.220Z,18.91
2019-05-01T22:07:23.800Z,18.97
2019-05-01T22:09:51.728Z,18.80
2019-05-01T22:12:21.331Z,18.73
2019-05-01T22:14:57.728Z,18.71
2019-05-01T22:17:45.118Z,18.68
2019-05-01T22:20:16.661Z,18.66
2019-05-01T22:22:53.878Z,18.71
2019-05-01T22:25:27.311Z,18.43
2019-05-01T22:28:19.898Z,18.60
2019-05-01T22:31:09.169Z,18.33
2019-05-01T22:33:39.391Z,18.38
2019-05-01T22:36:09.090Z,18.34
2019-05-01T22:38:38.749Z,18.21
2019-05-01T22:41:11.159Z,18.28
2019-05-01T22:43:40.847Z,18.11
2019-05-01T22:46:17.577Z,17.99
2019-05-01T22:48:47.213Z,18.10
2019-05-01T22:51:22.721Z,18.13
2019-05-01T22:53:55.208Z,18.03
2019-05-01T22:56:27.864Z,18.09
2019-05-01T22:58:57.491Z,17.88
2019-05-01T23:01:27.560Z,17.79
2019-05-01T23:04:07.561Z,17.57
2019-05-01T23:06:41.751Z,17.54
2019-05-01T23:09:08.932Z,17.64
2019-05-01T23:11:41.906Z,17.61
2019-05-01T23:14:11.748Z,17.58
2019-05-01T23:16:48.188Z,17.54
2019-05-01T23:19:18.009Z,17.41
2019-05-01T23:21:50.917Z,17.42
2019-05-01T23:24:19.579Z,17.37
2019-05-01T23:26:51.880Z,17.21
2019-05-01T23:29:21.559Z,17.36
2019-05-01T23:31:51.264Z,17.43
2019-05-01T23:34:25.764Z,17.35
2019-05-01T23:36:52.742Z,17.07
2019-05-01T23:39:22.393Z,17.21
2019-05-01T23:41:52.049Z,17.11
2019-05-01T23:44:21.910Z,17.01
2019-05-01T23:46:51.510Z,16.93
2019-05-01T23:49:21.179Z,17.06
2019-05-01T23:51:50.807Z,17.01
2019-05-01T23:54:20.213Z,16.97
2019-05-01T23:56:50.208Z,16.74
2019-05-01T23:59:20.430Z,16.90
